sensor_id;sensor_type;location;lat;lon;timestamp;P1;durP1;ratioP1;P2;durP2;ratioP2
74074;SDS011;62428;51.412;5.432;2023-08-30T00:00:51;9.07;;;4.30;;
74074;SDS011;62428;51.412;5.432;2023-08-30T00:03:16;7.80;;;4.67;;
74074;SDS011;62428;51.412;5.432;2023-08-30T00:05:42;6.80;;;4.60;;
74074;SDS011;62428;51.412;5.432;2023-08-30T00:08:10;7.57;;;4.57;;
74074;SDS011;62428;51.412;5.432;2023-08-30T00:10:35;8.18;;;5.00;;
74074;SDS011;62428;51.412;5.432;2023-08-30T00:13:02;9.57;;;4.82;;
74074;SDS011;62428;51.412;5.432;2023-08-30T00:15:28;8.33;;;4.80;;
74074;SDS011;62428;51.412;5.432;2023-08-30T00:17:53;7.73;;;4.30;;
74074;SDS011;62428;51.412;5.432;2023-08-30T00:20:19;8.87;;;4.63;;
74074;SDS011;62428;51.412;5.432;2023-08-30T00:22:46;7.10;;;4.22;;
74074;SDS011;62428;51.412;5.432;2023-08-30T00:25:12;7.55;;;4.38;;
74074;SDS011;62428;51.412;5.432;2023-08-30T00:27:37;7.73;;;4.40;;
74074;SDS011;62428;51.412;5.432;2023-08-30T00:30:02;12.63;;;4.67;;
74074;SDS011;62428;51.412;5.432;2023-08-30T00:32:29;6.75;;;4.10;;
74074;SDS011;62428;51.412;5.432;2023-08-30T00:34:54;9.93;;;4.70;;
74074;SDS011;62428;51.412;5.432;2023-08-30T00:37:19;9.60;;;4.10;;
74074;SDS011;62428;51.412;5.432;2023-08-30T00:39:45;6.43;;;4.27;;
74074;SDS011;62428;51.412;5.432;2023-08-30T00:42:10;10.68;;;4.13;;
74074;SDS011;62428;51.412;5.432;2023-08-30T00:44:35;9.75;;;4.10;;
74074;SDS011;62428;51.412;5.432;2023-08-30T00:47:01;9.03;;;4.50;;
74074;SDS011;62428;51.412;5.432;2023-08-30T00:49:28;7.78;;;4.53;;
74074;SDS011;62428;51.412;5.432;2023-08-30T00:51:55;5.95;;;4.10;;
74074;SDS011;62428;51.412;5.432;2023-08-30T00:54:22;8.30;;;4.32;;
74074;SDS011;62428;51.412;5.432;2023-08-30T00:56:47;8.27;;;4.60;;
74074;SDS011;62428;51.412;5.432;2023-08-30T00:59:13;5.77;;;3.90;;
74074;SDS011;62428;51.412;5.432;2023-08-30T01:01:39;6.10;;;3.70;;
74074;SDS011;62428;51.412;5.432;2023-08-30T01:04:05;6.25;;;3.95;;
74074;SDS011;62428;51.412;5.432;2023-08-30T01:06:30;7.53;;;4.37;;
74074;SDS011;62428;51.412;5.432;2023-08-30T01:08:56;7.00;;;4.27;;
74074;SDS011;62428;51.412;5.432;2023-08-30T01:11:23;7.47;;;4.28;;
74074;SDS011;62428;51.412;5.432;2023-08-30T01:13:56;7.60;;;4.68;;
74074;SDS011;62428;51.412;5.432;2023-08-30T01:16:25;10.07;;;4.78;;
74074;SDS011;62428;51.412;5.432;2023-08-30T01:18:52;7.85;;;4.38;;
74074;SDS011;62428;51.412;5.432;2023-08-30T01:21:30;7.00;;;4.70;;
74074;SDS011;62428;51.412;5.432;2023-08-30T01:24:05;10.02;;;4.95;;
74074;SDS011;62428;51.412;5.432;2023-08-30T01:29:25;6.55;;;4.72;;
74074;SDS011;62428;51.412;5.432;2023-08-30T01:31:51;9.15;;;4.68;;
74074;SDS011;62428;51.412;5.432;2023-08-30T01:34:17;8.25;;;4.97;;
74074;SDS011;62428;51.412;5.432;2023-08-30T01:36:43;7.35;;;4.75;;
74074;SDS011;62428;51.412;5.432;2023-08-30T01:39:12;8.93;;;4.80;;
74074;SDS011;62428;51.412;5.432;2023-08-30T01:41:39;9.65;;;5.22;;
74074;SDS011;62428;51.412;5.432;2023-08-30T01:44:05;9.40;;;5.07;;
74074;SDS011;62428;51.412;5.432;2023-08-30T01:46:33;9.75;;;5.22;;
74074;SDS011;62428;51.412;5.432;2023-08-30T01:48:59;10.77;;;5.30;;
74074;SDS011;62428;51.412;5.432;2023-08-30T01:51:26;9.10;;;5.05;;
74074;SDS011;62428;51.412;5.432;2023-08-30T01:53:53;9.02;;;4.72;;
74074;SDS011;62428;51.412;5.432;2023-08-30T01:56:19;9.10;;;4.80;;
74074;SDS011;62428;51.412;5.432;2023-08-30T01:58:44;12.47;;;5.77;;
74074;SDS011;62428;51.412;5.432;2023-08-30T02:01:10;11.20;;;5.13;;
74074;SDS011;62428;51.412;5.432;2023-08-30T02:03:35;8.37;;;4.43;;
74074;SDS011;62428;51.412;5.432;2023-08-30T02:06:14;11.15;;;4.97;;
74074;SDS011;62428;51.412;5.432;2023-08-30T02:11:37;10.43;;;4.90;;
74074;SDS011;62428;51.412;5.432;2023-08-30T02:14:06;10.10;;;4.95;;
74074;SDS011;62428;51.412;5.432;2023-08-30T02:16:35;9.57;;;5.10;;
74074;SDS011;62428;51.412;5.432;2023-08-30T02:19:02;10.13;;;5.32;;
74074;SDS011;62428;51.412;5.432;2023-08-30T02:21:28;9.95;;;5.13;;
74074;SDS011;62428;51.412;5.432;2023-08-30T02:23:54;9.67;;;5.90;;
74074;SDS011;62428;51.412;5.432;2023-08-30T02:26:19;9.18;;;5.30;;
74074;SDS011;62428;51.412;5.432;2023-08-30T02:28:45;11.00;;;5.45;;
74074;SDS011;62428;51.412;5.432;2023-08-30T02:31:10;9.47;;;5.47;;
74074;SDS011;62428;51.412;5.432;2023-08-30T02:33:36;9.38;;;5.20;;
74074;SDS011;62428;51.412;5.432;2023-08-30T02:36:02;8.77;;;4.53;;
74074;SDS011;62428;51.412;5.432;2023-08-30T02:38:28;10.45;;;5.32;;
74074;SDS011;62428;51.412;5.432;2023-08-30T02:40:53;11.27;;;4.77;;
74074;SDS011;62428;51.412;5.432;2023-08-30T02:43:19;8.63;;;4.78;;
74074;SDS011;62428;51.412;5.432;2023-08-30T02:45:44;9.85;;;5.25;;
74074;SDS011;62428;51.412;5.432;2023-08-30T02:48:09;11.27;;;5.60;;
74074;SDS011;62428;51.412;5.432;2023-08-30T02:50:35;12.13;;;5.30;;
74074;SDS011;62428;51.412;5.432;2023-08-30T02:53:00;9.00;;;5.40;;
74074;SDS011;62428;51.412;5.432;2023-08-30T02:55:25;13.07;;;5.67;;
74074;SDS011;62428;51.412;5.432;2023-08-30T02:57:51;10.50;;;6.03;;
74074;SDS011;62428;51.412;5.432;2023-08-30T03:00:16;12.23;;;6.40;;
74074;SDS011;62428;51.412;5.432;2023-08-30T03:02:42;9.93;;;5.57;;
74074;SDS011;62428;51.412;5.432;2023-08-30T03:05:07;10.60;;;5.70;;
74074;SDS011;62428;51.412;5.432;2023-08-30T03:07:33;12.43;;;5.47;;
74074;SDS011;62428;51.412;5.432;2023-08-30T03:09:58;8.07;;;5.33;;
74074;SDS011;62428;51.412;5.432;2023-08-30T03:12:23;10.30;;;5.72;;
74074;SDS011;62428;51.412;5.432;2023-08-30T03:14:49;9.85;;;5.68;;
74074;SDS011;62428;51.412;5.432;2023-08-30T03:17:14;10.83;;;6.17;;
74074;SDS011;62428;51.412;5.432;2023-08-30T03:19:39;9.50;;;6.03;;
74074;SDS011;62428;51.412;5.432;2023-08-30T03:22:05;11.40;;;6.20;;
74074;SDS011;62428;51.412;5.432;2023-08-30T03:24:30;11.00;;;5.93;;
74074;SDS011;62428;51.412;5.432;2023-08-30T03:26:55;13.53;;;6.30;;
74074;SDS011;62428;51.412;5.432;2023-08-30T03:29:21;10.55;;;6.35;;
74074;SDS011;62428;51.412;5.432;2023-08-30T03:31:47;11.53;;;6.47;;
74074;SDS011;62428;51.412;5.432;2023-08-30T03:34:12;12.37;;;6.10;;
74074;SDS011;62428;51.412;5.432;2023-08-30T03:36:38;12.55;;;6.82;;
74074;SDS011;62428;51.412;5.432;2023-08-30T03:39:04;12.55;;;6.57;;
74074;SDS011;62428;51.412;5.432;2023-08-30T03:41:29;10.43;;;6.70;;
74074;SDS011;62428;51.412;5.432;2023-08-30T03:43:55;14.40;;;6.93;;
74074;SDS011;62428;51.412;5.432;2023-08-30T03:46:20;11.83;;;6.90;;
74074;SDS011;62428;51.412;5.432;2023-08-30T03:48:45;13.40;;;7.27;;
74074;SDS011;62428;51.412;5.432;2023-08-30T03:51:11;13.53;;;7.37;;
74074;SDS011;62428;51.412;5.432;2023-08-30T03:53:36;16.33;;;7.43;;
74074;SDS011;62428;51.412;5.432;2023-08-30T03:56:01;13.33;;;7.67;;
74074;SDS011;62428;51.412;5.432;2023-08-30T03:58:28;15.90;;;7.07;;
74074;SDS011;62428;51.412;5.432;2023-08-30T04:00:54;12.67;;;7.13;;
74074;SDS011;62428;51.412;5.432;2023-08-30T04:03:19;13.18;;;8.45;;
74074;SDS011;62428;51.412;5.432;2023-08-30T04:05:44;16.87;;;8.10;;
74074;SDS011;62428;51.412;5.432;2023-08-30T04:08:10;15.77;;;8.00;;
74074;SDS011;62428;51.412;5.432;2023-08-30T04:10:36;14.13;;;8.20;;
74074;SDS011;62428;51.412;5.432;2023-08-30T04:13:05;14.60;;;8.02;;
74074;SDS011;62428;51.412;5.432;2023-08-30T04:15:32;10.93;;;7.68;;
74074;SDS011;62428;51.412;5.432;2023-08-30T04:17:59;12.88;;;7.93;;
74074;SDS011;62428;51.412;5.432;2023-08-30T04:20:24;12.48;;;8.18;;
74074;SDS011;62428;51.412;5.432;2023-08-30T04:22:49;13.63;;;7.57;;
74074;SDS011;62428;51.412;5.432;2023-08-30T04:25:15;13.53;;;7.60;;
74074;SDS011;62428;51.412;5.432;2023-08-30T04:27:40;12.13;;;7.77;;
74074;SDS011;62428;51.412;5.432;2023-08-30T04:30:06;14.97;;;8.27;;
74074;SDS011;62428;51.412;5.432;2023-08-30T04:32:31;12.95;;;7.82;;
74074;SDS011;62428;51.412;5.432;2023-08-30T04:34:57;13.37;;;8.40;;
74074;SDS011;62428;51.412;5.432;2023-08-30T04:37:23;12.40;;;7.70;;
74074;SDS011;62428;51.412;5.432;2023-08-30T04:39:48;15.18;;;7.85;;
74074;SDS011;62428;51.412;5.432;2023-08-30T04:42:14;14.60;;;8.33;;
74074;SDS011;62428;51.412;5.432;2023-08-30T04:44:40;15.75;;;8.40;;
74074;SDS011;62428;51.412;5.432;2023-08-30T04:47:05;15.07;;;9.43;;
74074;SDS011;62428;51.412;5.432;2023-08-30T04:49:30;17.93;;;8.70;;
74074;SDS011;62428;51.412;5.432;2023-08-30T04:51:56;14.10;;;8.47;;
74074;SDS011;62428;51.412;5.432;2023-08-30T04:54:21;15.45;;;9.02;;
74074;SDS011;62428;51.412;5.432;2023-08-30T04:56:46;16.75;;;9.02;;
74074;SDS011;62428;51.412;5.432;2023-08-30T04:59:12;13.33;;;8.30;;
74074;SDS011;62428;51.412;5.432;2023-08-30T05:01:37;15.60;;;8.40;;
74074;SDS011;62428;51.412;5.432;2023-08-30T05:04:04;14.27;;;8.45;;
74074;SDS011;62428;51.412;5.432;2023-08-30T05:06:30;14.82;;;8.38;;
74074;SDS011;62428;51.412;5.432;2023-08-30T05:08:56;16.08;;;8.65;;
74074;SDS011;62428;51.412;5.432;2023-08-30T05:11:23;12.95;;;8.38;;
74074;SDS011;62428;51.412;5.432;2023-08-30T05:13:48;14.23;;;8.43;;
74074;SDS011;62428;51.412;5.432;2023-08-30T05:16:14;14.47;;;8.20;;
74074;SDS011;62428;51.412;5.432;2023-08-30T05:18:39;17.30;;;8.10;;
74074;SDS011;62428;51.412;5.432;2023-08-30T05:21:04;15.52;;;8.43;;
74074;SDS011;62428;51.412;5.432;2023-08-30T05:23:30;15.73;;;8.90;;
74074;SDS011;62428;51.412;5.432;2023-08-30T05:25:56;16.27;;;8.43;;
74074;SDS011;62428;51.412;5.432;2023-08-30T05:28:21;15.10;;;7.90;;
74074;SDS011;62428;51.412;5.432;2023-08-30T05:30:46;14.50;;;7.93;;
74074;SDS011;62428;51.412;5.432;2023-08-30T05:33:15;15.13;;;8.45;;
74074;SDS011;62428;51.412;5.432;2023-08-30T05:35:40;12.73;;;7.45;;
74074;SDS011;62428;51.412;5.432;2023-08-30T05:38:06;16.37;;;7.83;;
74074;SDS011;62428;51.412;5.432;2023-08-30T05:40:31;14.90;;;7.68;;
74074;SDS011;62428;51.412;5.432;2023-08-30T05:42:57;15.03;;;7.13;;
74074;SDS011;62428;51.412;5.432;2023-08-30T05:45:22;11.37;;;7.30;;
74074;SDS011;62428;51.412;5.432;2023-08-30T05:47:47;14.03;;;7.57;;
74074;SDS011;62428;51.412;5.432;2023-08-30T05:50:13;14.70;;;8.13;;
74074;SDS011;62428;51.412;5.432;2023-08-30T05:52:38;17.13;;;7.77;;
74074;SDS011;62428;51.412;5.432;2023-08-30T05:55:09;14.30;;;7.68;;
74074;SDS011;62428;51.412;5.432;2023-08-30T05:57:35;13.70;;;8.23;;
74074;SDS011;62428;51.412;5.432;2023-08-30T06:00:01;14.63;;;8.00;;
74074;SDS011;62428;51.412;5.432;2023-08-30T06:02:27;11.93;;;7.70;;
74074;SDS011;62428;51.412;5.432;2023-08-30T06:04:52;15.20;;;7.70;;
74074;SDS011;62428;51.412;5.432;2023-08-30T06:07:18;11.60;;;7.93;;
74074;SDS011;62428;51.412;5.432;2023-08-30T06:09:43;13.85;;;8.90;;
74074;SDS011;62428;51.412;5.432;2023-08-30T06:12:09;16.17;;;8.30;;
74074;SDS011;62428;51.412;5.432;2023-08-30T06:14:34;11.77;;;7.68;;
74074;SDS011;62428;51.412;5.432;2023-08-30T06:17:00;21.63;;;8.40;;
74074;SDS011;62428;51.412;5.432;2023-08-30T06:19:25;13.63;;;8.30;;
74074;SDS011;62428;51.412;5.432;2023-08-30T06:21:51;20.53;;;8.70;;
74074;SDS011;62428;51.412;5.432;2023-08-30T06:24:16;11.48;;;7.60;;
74074;SDS011;62428;51.412;5.432;2023-08-30T06:26:41;13.38;;;8.68;;
74074;SDS011;62428;51.412;5.432;2023-08-30T06:29:07;15.07;;;8.33;;
74074;SDS011;62428;51.412;5.432;2023-08-30T06:31:32;14.00;;;8.33;;
74074;SDS011;62428;51.412;5.432;2023-08-30T06:33:57;15.37;;;9.60;;
74074;SDS011;62428;51.412;5.432;2023-08-30T06:36:23;17.20;;;8.63;;
74074;SDS011;62428;51.412;5.432;2023-08-30T06:38:48;16.07;;;8.50;;
74074;SDS011;62428;51.412;5.432;2023-08-30T06:41:14;15.52;;;8.57;;
74074;SDS011;62428;51.412;5.432;2023-08-30T06:43:39;15.73;;;8.57;;
74074;SDS011;62428;51.412;5.432;2023-08-30T06:46:05;17.57;;;7.97;;
74074;SDS011;62428;51.412;5.432;2023-08-30T06:48:30;20.13;;;9.00;;
74074;SDS011;62428;51.412;5.432;2023-08-30T06:50:58;17.13;;;8.13;;
74074;SDS011;62428;51.412;5.432;2023-08-30T06:53:25;16.58;;;8.45;;
74074;SDS011;62428;51.412;5.432;2023-08-30T06:55:58;13.98;;;8.35;;
74074;SDS011;62428;51.412;5.432;2023-08-30T06:58:24;15.52;;;8.07;;
74074;SDS011;62428;51.412;5.432;2023-08-30T07:00:49;12.37;;;8.10;;
74074;SDS011;62428;51.412;5.432;2023-08-30T07:03:14;17.33;;;8.57;;
74074;SDS011;62428;51.412;5.432;2023-08-30T07:05:40;18.33;;;9.10;;
74074;SDS011;62428;51.412;5.432;2023-08-30T07:08:05;19.98;;;8.63;;
74074;SDS011;62428;51.412;5.432;2023-08-30T07:10:30;15.30;;;8.60;;
74074;SDS011;62428;51.412;5.432;2023-08-30T07:12:58;14.00;;;7.60;;
74074;SDS011;62428;51.412;5.432;2023-08-30T07:15:23;16.27;;;7.40;;
74074;SDS011;62428;51.412;5.432;2023-08-30T07:17:49;12.90;;;6.73;;
74074;SDS011;62428;51.412;5.432;2023-08-30T07:20:14;14.47;;;6.93;;
74074;SDS011;62428;51.412;5.432;2023-08-30T07:22:40;13.50;;;6.80;;
74074;SDS011;62428;51.412;5.432;2023-08-30T07:25:05;13.60;;;6.88;;
74074;SDS011;62428;51.412;5.432;2023-08-30T07:27:31;12.23;;;5.80;;
74074;SDS011;62428;51.412;5.432;2023-08-30T07:29:57;10.00;;;5.38;;
74074;SDS011;62428;51.412;5.432;2023-08-30T07:32:22;10.47;;;5.27;;
74074;SDS011;62428;51.412;5.432;2023-08-30T07:34:48;9.70;;;5.22;;
74074;SDS011;62428;51.412;5.432;2023-08-30T07:37:17;9.93;;;5.10;;
74074;SDS011;62428;51.412;5.432;2023-08-30T07:39:46;13.38;;;4.90;;
74074;SDS011;62428;51.412;5.432;2023-08-30T07:42:11;9.13;;;4.40;;
74074;SDS011;62428;51.412;5.432;2023-08-30T07:44:37;7.20;;;4.07;;
74074;SDS011;62428;51.412;5.432;2023-08-30T07:47:02;9.73;;;4.17;;
74074;SDS011;62428;51.412;5.432;2023-08-30T07:49:28;8.57;;;4.47;;
74074;SDS011;62428;51.412;5.432;2023-08-30T07:51:53;11.00;;;4.40;;
74074;SDS011;62428;51.412;5.432;2023-08-30T07:54:18;8.87;;;4.07;;
74074;SDS011;62428;51.412;5.432;2023-08-30T07:56:44;12.40;;;4.53;;
74074;SDS011;62428;51.412;5.432;2023-08-30T07:59:09;8.70;;;4.17;;
74074;SDS011;62428;51.412;5.432;2023-08-30T08:01:34;7.43;;;4.18;;
74074;SDS011;62428;51.412;5.432;2023-08-30T08:04:00;14.70;;;5.30;;
74074;SDS011;62428;51.412;5.432;2023-08-30T08:06:25;7.53;;;4.20;;
74074;SDS011;62428;51.412;5.432;2023-08-30T08:08:51;9.30;;;4.03;;
74074;SDS011;62428;51.412;5.432;2023-08-30T08:11:16;7.30;;;3.57;;
74074;SDS011;62428;51.412;5.432;2023-08-30T08:13:41;8.00;;;4.00;;
74074;SDS011;62428;51.412;5.432;2023-08-30T08:16:07;7.63;;;4.22;;
74074;SDS011;62428;51.412;5.432;2023-08-30T08:18:33;7.17;;;4.03;;
74074;SDS011;62428;51.412;5.432;2023-08-30T08:20:58;10.40;;;4.00;;
74074;SDS011;62428;51.412;5.432;2023-08-30T08:23:23;7.18;;;4.20;;
74074;SDS011;62428;51.412;5.432;2023-08-30T08:25:49;10.40;;;4.35;;
74074;SDS011;62428;51.412;5.432;2023-08-30T08:28:14;7.83;;;4.50;;
74074;SDS011;62428;51.412;5.432;2023-08-30T08:30:42;6.45;;;4.22;;
74074;SDS011;62428;51.412;5.432;2023-08-30T08:33:10;8.67;;;4.00;;
74074;SDS011;62428;51.412;5.432;2023-08-30T08:35:35;7.72;;;3.70;;
74074;SDS011;62428;51.412;5.432;2023-08-30T08:38:00;7.70;;;3.80;;
74074;SDS011;62428;51.412;5.432;2023-08-30T08:40:26;7.93;;;4.43;;
74074;SDS011;62428;51.412;5.432;2023-08-30T08:42:52;7.18;;;4.35;;
74074;SDS011;62428;51.412;5.432;2023-08-30T08:45:20;6.65;;;3.92;;
74074;SDS011;62428;51.412;5.432;2023-08-30T08:47:47;7.30;;;3.80;;
74074;SDS011;62428;51.412;5.432;2023-08-30T08:50:13;8.45;;;4.90;;
74074;SDS011;62428;51.412;5.432;2023-08-30T08:52:38;7.05;;;3.90;;
74074;SDS011;62428;51.412;5.432;2023-08-30T08:55:04;6.87;;;3.70;;
74074;SDS011;62428;51.412;5.432;2023-08-30T08:57:30;5.97;;;3.72;;
74074;SDS011;62428;51.412;5.432;2023-08-30T08:59:58;8.63;;;3.60;;
74074;SDS011;62428;51.412;5.432;2023-08-30T09:02:24;9.80;;;4.17;;
74074;SDS011;62428;51.412;5.432;2023-08-30T09:04:50;9.25;;;3.28;;
74074;SDS011;62428;51.412;5.432;2023-08-30T09:07:17;5.13;;;2.95;;
74074;SDS011;62428;51.412;5.432;2023-08-30T09:09:44;8.02;;;3.22;;
74074;SDS011;62428;51.412;5.432;2023-08-30T09:12:09;9.02;;;2.88;;
74074;SDS011;62428;51.412;5.432;2023-08-30T09:14:35;5.87;;;2.80;;
74074;SDS011;62428;51.412;5.432;2023-08-30T09:17:01;3.93;;;2.70;;
74074;SDS011;62428;51.412;5.432;2023-08-30T09:19:27;5.43;;;2.80;;
74074;SDS011;62428;51.412;5.432;2023-08-30T09:21:53;6.63;;;2.97;;
74074;SDS011;62428;51.412;5.432;2023-08-30T09:24:19;5.50;;;2.97;;
74074;SDS011;62428;51.412;5.432;2023-08-30T09:26:48;4.53;;;2.65;;
74074;SDS011;62428;51.412;5.432;2023-08-30T09:29:18;4.32;;;2.80;;
74074;SDS011;62428;51.412;5.432;2023-08-30T09:31:44;4.65;;;3.00;;
74074;SDS011;62428;51.412;5.432;2023-08-30T09:34:10;4.93;;;3.10;;
74074;SDS011;62428;51.412;5.432;2023-08-30T09:36:39;4.25;;;2.53;;
74074;SDS011;62428;51.412;5.432;2023-08-30T09:39:07;5.28;;;2.70;;
74074;SDS011;62428;51.412;5.432;2023-08-30T09:41:37;5.50;;;2.90;;
74074;SDS011;62428;51.412;5.432;2023-08-30T09:44:07;5.45;;;3.30;;
74074;SDS011;62428;51.412;5.432;2023-08-30T09:46:39;4.25;;;3.17;;
74074;SDS011;62428;51.412;5.432;2023-08-30T09:49:06;5.40;;;3.33;;
74074;SDS011;62428;51.412;5.432;2023-08-30T09:51:32;4.90;;;2.72;;
74074;SDS011;62428;51.412;5.432;2023-08-30T09:54:00;6.15;;;3.00;;
74074;SDS011;62428;51.412;5.432;2023-08-30T09:56:29;7.47;;;3.00;;
74074;SDS011;62428;51.412;5.432;2023-08-30T09:58:58;5.15;;;3.08;;
74074;SDS011;62428;51.412;5.432;2023-08-30T10:01:25;4.28;;;3.05;;
74074;SDS011;62428;51.412;5.432;2023-08-30T10:03:52;7.25;;;3.55;;
74074;SDS011;62428;51.412;5.432;2023-08-30T10:06:19;5.95;;;3.47;;
74074;SDS011;62428;51.412;5.432;2023-08-30T10:08:46;4.95;;;3.35;;
74074;SDS011;62428;51.412;5.432;2023-08-30T10:11:13;5.95;;;3.40;;
74074;SDS011;62428;51.412;5.432;2023-08-30T10:13:42;5.85;;;3.80;;
74074;SDS011;62428;51.412;5.432;2023-08-30T10:16:08;5.07;;;3.67;;
74074;SDS011;62428;51.412;5.432;2023-08-30T10:18:40;5.70;;;4.00;;
74074;SDS011;62428;51.412;5.432;2023-08-30T10:21:06;5.80;;;4.10;;
74074;SDS011;62428;51.412;5.432;2023-08-30T10:23:36;6.73;;;4.73;;
74074;SDS011;62428;51.412;5.432;2023-08-30T10:26:03;5.97;;;4.40;;
74074;SDS011;62428;51.412;5.432;2023-08-30T10:28:30;6.07;;;3.95;;
74074;SDS011;62428;51.412;5.432;2023-08-30T10:30:56;5.32;;;3.80;;
74074;SDS011;62428;51.412;5.432;2023-08-30T10:33:21;6.50;;;3.90;;
74074;SDS011;62428;51.412;5.432;2023-08-30T10:35:50;7.63;;;4.38;;
74074;SDS011;62428;51.412;5.432;2023-08-30T10:38:29;7.10;;;3.90;;
74074;SDS011;62428;51.412;5.432;2023-08-30T10:40:55;5.95;;;3.88;;
74074;SDS011;62428;51.412;5.432;2023-08-30T10:43:31;6.00;;;4.18;;
74074;SDS011;62428;51.412;5.432;2023-08-30T10:46:00;6.15;;;4.40;;
74074;SDS011;62428;51.412;5.432;2023-08-30T10:48:39;5.85;;;4.35;;
74074;SDS011;62428;51.412;5.432;2023-08-30T10:51:15;7.40;;;4.73;;
74074;SDS011;62428;51.412;5.432;2023-08-30T10:53:55;6.07;;;4.70;;
74074;SDS011;62428;51.412;5.432;2023-08-30T10:56:26;7.00;;;3.95;;
74074;SDS011;62428;51.412;5.432;2023-08-30T10:58:52;6.60;;;4.47;;
74074;SDS011;62428;51.412;5.432;2023-08-30T11:01:18;8.73;;;4.67;;
74074;SDS011;62428;51.412;5.432;2023-08-30T11:03:44;6.88;;;4.35;;
74074;SDS011;62428;51.412;5.432;2023-08-30T11:06:13;7.70;;;4.90;;
74074;SDS011;62428;51.412;5.432;2023-08-30T11:08:39;6.28;;;4.20;;
74074;SDS011;62428;51.412;5.432;2023-08-30T11:11:04;6.47;;;3.87;;
74074;SDS011;62428;51.412;5.432;2023-08-30T11:13:30;7.18;;;4.65;;
74074;SDS011;62428;51.412;5.432;2023-08-30T11:16:00;5.37;;;3.70;;
74074;SDS011;62428;51.412;5.432;2023-08-30T11:18:26;6.65;;;3.50;;
74074;SDS011;62428;51.412;5.432;2023-08-30T11:20:58;4.80;;;3.60;;
74074;SDS011;62428;51.412;5.432;2023-08-30T11:23:26;6.97;;;4.18;;
74074;SDS011;62428;51.412;5.432;2023-08-30T11:25:51;4.63;;;3.60;;
74074;SDS011;62428;51.412;5.432;2023-08-30T11:28:24;7.70;;;3.92;;
74074;SDS011;62428;51.412;5.432;2023-08-30T11:30:53;6.25;;;4.45;;
74074;SDS011;62428;51.412;5.432;2023-08-30T11:33:18;9.73;;;4.28;;
74074;SDS011;62428;51.412;5.432;2023-08-30T11:35:44;5.40;;;3.77;;
74074;SDS011;62428;51.412;5.432;2023-08-30T11:38:11;6.18;;;4.35;;
74074;SDS011;62428;51.412;5.432;2023-08-30T11:40:38;8.60;;;4.60;;
74074;SDS011;62428;51.412;5.432;2023-08-30T11:43:04;7.40;;;4.25;;
74074;SDS011;62428;51.412;5.432;2023-08-30T11:45:32;6.32;;;4.70;;
74074;SDS011;62428;51.412;5.432;2023-08-30T11:47:59;6.38;;;4.22;;
74074;SDS011;62428;51.412;5.432;2023-08-30T11:50:25;6.57;;;4.20;;
74074;SDS011;62428;51.412;5.432;2023-08-30T11:52:51;5.53;;;3.80;;
74074;SDS011;62428;51.412;5.432;2023-08-30T11:55:18;8.10;;;3.35;;
74074;SDS011;62428;51.412;5.432;2023-08-30T11:57:47;7.43;;;3.28;;
74074;SDS011;62428;51.412;5.432;2023-08-30T12:00:15;6.32;;;3.72;;
74074;SDS011;62428;51.412;5.432;2023-08-30T12:02:44;6.27;;;3.30;;
74074;SDS011;62428;51.412;5.432;2023-08-30T12:05:11;7.38;;;3.45;;
74074;SDS011;62428;51.412;5.432;2023-08-30T12:07:37;7.28;;;3.10;;
74074;SDS011;62428;51.412;5.432;2023-08-30T12:10:04;8.38;;;2.65;;
74074;SDS011;62428;51.412;5.432;2023-08-30T12:12:31;6.22;;;1.75;;
74074;SDS011;62428;51.412;5.432;2023-08-30T12:14:56;7.70;;;2.00;;
74074;SDS011;62428;51.412;5.432;2023-08-30T12:17:22;10.10;;;1.93;;
74074;SDS011;62428;51.412;5.432;2023-08-30T12:19:54;6.63;;;2.20;;
74074;SDS011;62428;51.412;5.432;2023-08-30T12:22:21;7.15;;;1.70;;
74074;SDS011;62428;51.412;5.432;2023-08-30T12:24:46;5.80;;;1.90;;
74074;SDS011;62428;51.412;5.432;2023-08-30T12:27:12;5.72;;;1.88;;
74074;SDS011;62428;51.412;5.432;2023-08-30T12:29:38;6.53;;;1.73;;
74074;SDS011;62428;51.412;5.432;2023-08-30T12:32:05;7.60;;;1.57;;
74074;SDS011;62428;51.412;5.432;2023-08-30T12:34:31;9.30;;;1.77;;
74074;SDS011;62428;51.412;5.432;2023-08-30T12:36:56;10.00;;;1.90;;
74074;SDS011;62428;51.412;5.432;2023-08-30T12:39:21;7.35;;;1.70;;
74074;SDS011;62428;51.412;5.432;2023-08-30T12:41:47;9.10;;;1.43;;
74074;SDS011;62428;51.412;5.432;2023-08-30T12:44:12;4.03;;;1.40;;
74074;SDS011;62428;51.412;5.432;2023-08-30T12:46:38;4.80;;;1.67;;
74074;SDS011;62428;51.412;5.432;2023-08-30T12:49:03;4.90;;;1.40;;
74074;SDS011;62428;51.412;5.432;2023-08-30T12:51:29;5.22;;;1.30;;
74074;SDS011;62428;51.412;5.432;2023-08-30T12:53:55;4.57;;;1.13;;
74074;SDS011;62428;51.412;5.432;2023-08-30T12:56:20;4.38;;;1.05;;
74074;SDS011;62428;51.412;5.432;2023-08-30T12:58:46;5.93;;;1.40;;
74074;SDS011;62428;51.412;5.432;2023-08-30T13:01:11;7.67;;;1.60;;
74074;SDS011;62428;51.412;5.432;2023-08-30T13:03:36;4.77;;;1.10;;
74074;SDS011;62428;51.412;5.432;2023-08-30T13:06:02;5.60;;;1.30;;
74074;SDS011;62428;51.412;5.432;2023-08-30T13:08:29;6.97;;;1.27;;
74074;SDS011;62428;51.412;5.432;2023-08-30T13:10:54;5.27;;;1.30;;
74074;SDS011;62428;51.412;5.432;2023-08-30T13:13:20;8.70;;;1.20;;
74074;SDS011;62428;51.412;5.432;2023-08-30T13:15:46;5.97;;;1.40;;
74074;SDS011;62428;51.412;5.432;2023-08-30T13:18:13;5.68;;;1.23;;
74074;SDS011;62428;51.412;5.432;2023-08-30T13:20:40;5.75;;;1.38;;
74074;SDS011;62428;51.412;5.432;2023-08-30T13:23:06;7.67;;;1.33;;
74074;SDS011;62428;51.412;5.432;2023-08-30T13:25:31;6.37;;;1.30;;
74074;SDS011;62428;51.412;5.432;2023-08-30T13:27:56;6.10;;;1.30;;
74074;SDS011;62428;51.412;5.432;2023-08-30T13:30:22;5.25;;;1.15;;
74074;SDS011;62428;51.412;5.432;2023-08-30T13:32:47;4.40;;;1.23;;
74074;SDS011;62428;51.412;5.432;2023-08-30T13:35:12;5.00;;;1.63;;
74074;SDS011;62428;51.412;5.432;2023-08-30T13:37:38;8.93;;;1.80;;
74074;SDS011;62428;51.412;5.432;2023-08-30T13:40:03;7.17;;;1.40;;
74074;SDS011;62428;51.412;5.432;2023-08-30T13:42:31;7.82;;;2.00;;
74074;SDS011;62428;51.412;5.432;2023-08-30T13:44:57;6.38;;;1.30;;
74074;SDS011;62428;51.412;5.432;2023-08-30T13:47:22;6.80;;;1.57;;
74074;SDS011;62428;51.412;5.432;2023-08-30T13:49:48;5.00;;;1.27;;
74074;SDS011;62428;51.412;5.432;2023-08-30T13:52:13;5.03;;;1.60;;
74074;SDS011;62428;51.412;5.432;2023-08-30T13:54:38;5.30;;;1.20;;
74074;SDS011;62428;51.412;5.432;2023-08-30T13:57:04;3.87;;;1.23;;
74074;SDS011;62428;51.412;5.432;2023-08-30T13:59:29;6.30;;;1.58;;
74074;SDS011;62428;51.412;5.432;2023-08-30T14:01:55;4.53;;;0.83;;
74074;SDS011;62428;51.412;5.432;2023-08-30T14:04:22;5.60;;;1.25;;
74074;SDS011;62428;51.412;5.432;2023-08-30T14:06:49;6.10;;;1.58;;
74074;SDS011;62428;51.412;5.432;2023-08-30T14:09:15;4.13;;;0.83;;
74074;SDS011;62428;51.412;5.432;2023-08-30T14:11:40;5.40;;;1.50;;
74074;SDS011;62428;51.412;5.432;2023-08-30T14:14:06;5.63;;;0.97;;
74074;SDS011;62428;51.412;5.432;2023-08-30T14:16:32;5.53;;;1.02;;
74074;SDS011;62428;51.412;5.432;2023-08-30T14:18:57;3.57;;;1.00;;
74074;SDS011;62428;51.412;5.432;2023-08-30T14:21:30;6.68;;;1.30;;
74074;SDS011;62428;51.412;5.432;2023-08-30T14:23:55;4.90;;;1.00;;
74074;SDS011;62428;51.412;5.432;2023-08-30T14:26:20;2.63;;;0.77;;
74074;SDS011;62428;51.412;5.432;2023-08-30T14:28:46;6.83;;;0.90;;
74074;SDS011;62428;51.412;5.432;2023-08-30T14:31:11;5.90;;;1.30;;
74074;SDS011;62428;51.412;5.432;2023-08-30T14:33:37;4.28;;;0.80;;
74074;SDS011;62428;51.412;5.432;2023-08-30T14:36:03;3.67;;;0.70;;
74074;SDS011;62428;51.412;5.432;2023-08-30T14:38:33;2.88;;;0.75;;
74074;SDS011;62428;51.412;5.432;2023-08-30T14:40:59;5.10;;;1.10;;
74074;SDS011;62428;51.412;5.432;2023-08-30T14:43:25;3.13;;;0.60;;